sim
Sign-in with your pilot id or email,
or register
Callsign
Passwort

Schedule Details

Flight Number: OEF9175
Departure: Toronto Pearson International Airport (CYYZ) at 15:05
Arrival: Los Angeles International Airport (KLAX) at 19:50

Weather Information
Getting current METAR information for CYYZ 222222Z 14005G15KT 15SM FEW060 BKN100 BKN250 21/16 A2984 RMK SC1AC4CI2 SLP106 DENSITY ALT 1600FT
Getting current METAR information for KLAX 222253Z 26012KT 10SM FEW040 FEW095 SCT150 SCT200 23/17 A2995 RMK AO2 SLP141 CB DSNT E T02330167 $

Schedule Frequency

Route Map